Catàleg de serveis del Meteocat

Dades de l'estació automàtica Salòria (2.451 m)

?
?
Resum diari 22:30 TU
Dades diàries de l'estació meteorològica
Temperatura mitjana -4.8 °C
Temperatura màxima -3.0 °C 16:59 TU
Temperatura mínima -7.4 °C 6:00 TU
Humitat relativa mitjana 95%
Precipitació acumulada 17.8 mm
Gruix de neu màxim 12 cm
Ratxa màxima del vent (10 m) 52.9 km/h - 183º 14:23 TU
Irradiació solar global 2.9 MJ/m2

El tram horari està expressat en Temps Universal (TU). Cal sumar una hora en horari d'hivern i dues en horari d'estiu per passar a l'hora oficial.

Salòria (2.451 m)

Metadades estació meteorol´gica
Municipi Alins
Comarca Pallars Sobirà
Altitud 2451 m
Data alta 30.09.2004
Estat actual Operativa
Dades de període
Període
TU
TM
°C
TX
°C
TN
°C
HRM
%
PPT
mm
GN
cm
VVM (10 m)
km/h
DVM (10 m)
graus
VVX (10 m)
km/h
RS
W/m2
00:00 - 00:30 -6.1 -5.8 -6.2 94 0.0 4 14.8 169 25.6 0
00:30 - 01:00 -6.1 -5.9 -6.2 96 0.0 4 12.6 171 21.2 0
01:00 - 01:30 -6.1 -5.9 -6.3 96 0.0 4 10.1 172 18.4 0
01:30 - 02:00 -6.2 -6.2 -6.3 95 0.0 4 7.6 165 14.4 0
02:00 - 02:30 -6.4 -6.2 -6.5 95 0.0 4 3.6 204 10.1 0
02:30 - 03:00 -6.5 -6.4 -6.7 95 0.0 4 6.5 216 13.0 0
03:00 - 03:30 -6.8 -6.7 -6.9 94 0.0 4 6.8 194 14.0 0
03:30 - 04:00 -6.9 -6.7 -7.1 90 0.0 4 6.5 186 14.8 0
04:00 - 04:30 -7.0 -7.0 -7.1 95 0.0 4 7.9 180 14.8 0
04:30 - 05:00 -7.1 -6.8 -7.2 96 0.0 4 9.4 159 15.5 0
05:00 - 05:30 -6.6 -6.1 -7.0 79 0.0 4 9.0 188 16.6 0
05:30 - 06:00 -6.4 -6.1 -7.4 83 0.0 4 7.6 165 20.2 0
06:00 - 06:30 -6.9 -6.5 -7.4 96 0.0 4 13.3 157 21.2 0
06:30 - 07:00 -6.5 -6.4 -6.7 94 0.0 4 11.9 149 17.3 1
07:00 - 07:30 -6.3 -5.6 -6.8 94 0.0 4 9.0 131 17.6 16
07:30 - 08:00 -5.4 -5.2 -5.6 92 0.0 4 5.4 193 16.9 44
08:00 - 08:30 -4.9 -4.5 -5.2 93 0.0 4 7.2 186 23.4 58
08:30 - 09:00 -4.3 -4.2 -4.6 93 0.0 4 15.8 199 37.8 96
09:00 - 09:30 -4.7 -4.6 -5.0 96 0.0 4 15.8 166 31.7 111
09:30 - 10:00 -4.4 -4.1 -4.7 96 0.0 4 20.9 187 50.8 125
10:00 - 10:30 -4.0 -4.0 -4.1 95 0.0 3 17.6 198 41.4 145
10:30 - 11:00 -3.9 -3.9 -4.0 95 0.0 4 17.3 181 42.5 147
11:00 - 11:30 -4.0 -3.8 -4.0 97 0.4 4 19.8 169 34.6 147
11:30 - 12:00 -3.8 -3.7 -3.9 97 0.4 4 22.0 177 40.7 125
12:00 - 12:30 -3.6 -3.6 -3.7 97 0.4 4 19.8 177 38.5 143
12:30 - 13:00 -3.6 -3.6 -3.6 97 0.3 4 26.3 175 46.1 108
13:00 - 13:30 -3.5 -3.4 -3.5 97 0.8 5 26.6 171 41.8 83
13:30 - 14:00 -3.3 -3.3 -3.4 97 3.1 7 26.3 171 42.1 79
14:00 - 14:30 -3.2 -3.1 -3.3 97 3.8 8 23.8 174 52.9 61
14:30 - 15:00 -3.2 -3.2 -3.3 97 3.0 10 18.0 171 40.3 59
15:00 - 15:30 -3.3 -3.2 -3.3 97 1.6 11 18.0 163 34.9 47
15:30 - 16:00 -3.3 -3.2 -3.4 97 1.1 11 16.9 170 33.8 36
16:00 - 16:30 -3.2 -3.2 -3.3 98 0.7 10 15.5 168 29.2 7
16:30 - 17:00 -3.1 -3.0 -3.2 98 0.4 11 13.0 171 25.2 0
17:00 - 17:30 -3.0 -3.0 -3.1 98 1.0 11 13.0 171 30.6 0
17:30 - 18:00 -3.1 -3.0 -3.1 98 0.4 11 10.1 180 25.2 0
18:00 - 18:30 -3.1 -3.1 -3.2 98 0.3 12 11.9 170 20.9 0
18:30 - 19:00 -3.4 -3.2 -3.5 98 0.1 11 16.2 163 29.9 0
19:00 - 19:30 -3.6 -3.5 -3.8 97 0.0 11 11.2 181 24.5 0
19:30 - 20:00 -4.0 -3.8 -4.5 97 0.0 11 10.4 172 24.5 0
20:00 - 20:30 -4.5 -4.3 -4.7 97 0.0 11 6.1 186 14.0 0
20:30 - 21:00 -4.8 -4.6 -4.9 96 0.0 11 8.6 201 18.7 0
21:00 - 21:30 -4.9 -4.8 -5.2 96 0.0 11 8.3 241 13.7 0
21:30 - 22:00 -5.3 -5.1 -5.3 96 0.0 11 4.7 172 6.8 0
22:00 - 22:30 -4.9 -4.7 -5.3 96 0.0 11 6.8 209 13.0 0
22:30 - 23:00 -4.6 -4.4 -4.8 97 0.0 11 7.9 191 14.0 0

Les dades en taronja només han passat un control de qualitat automàtic. Resta pendent la seva validació definitiva.